createdAt,value
2018-03-30T00:01:32.681Z,10.00
2018-03-30T00:04:00.852Z,8.33
2018-03-30T00:06:29.054Z,9.00
2018-03-30T00:08:57.189Z,8.73
2018-03-30T00:11:28.866Z,8.73
2018-03-30T00:13:56.999Z,8.70
2018-03-30T00:16:25.124Z,8.37
2018-03-30T00:18:53.276Z,8.63
2018-03-30T00:21:21.394Z,9.47
2018-03-30T00:23:50.293Z,9.07
2018-03-30T00:26:19.182Z,9.13
2018-03-30T00:28:47.356Z,8.90
2018-03-30T00:31:15.475Z,8.50
2018-03-30T00:33:44.399Z,9.60
2018-03-30T00:36:12.533Z,10.27
2018-03-30T00:38:40.662Z,8.97
2018-03-30T00:41:08.864Z,9.93
2018-03-30T00:43:36.976Z,9.77
2018-03-30T00:46:05.129Z,9.90
2018-03-30T00:48:33.246Z,9.87
2018-03-30T00:51:01.522Z,9.50
2018-03-30T00:53:54.490Z,8.47
2018-03-30T00:56:22.619Z,10.80
2018-03-30T00:58:51.613Z,12.20
2018-03-30T01:01:19.780Z,9.70
2018-03-30T01:03:47.992Z,9.40
2018-03-30T01:06:16.156Z,9.70
2018-03-30T01:08:44.325Z,9.47
2018-03-30T01:11:12.574Z,8.73
2018-03-30T01:13:41.486Z,9.20
2018-03-30T01:16:10.411Z,10.00
2018-03-30T01:18:38.549Z,9.63
2018-03-30T01:21:06.744Z,10.23
2018-03-30T01:23:35.648Z,10.83
2018-03-30T01:26:04.629Z,11.60
2018-03-30T01:28:32.877Z,10.00
2018-03-30T01:31:01.034Z,10.00
2018-03-30T01:33:30.000Z,11.20
2018-03-30T01:35:58.140Z,11.20
2018-03-30T01:38:26.414Z,11.57
2018-03-30T01:40:55.328Z,11.67
2018-03-30T01:43:23.506Z,11.80
2018-03-30T01:45:52.625Z,12.97
2018-03-30T01:48:20.762Z,11.10
2018-03-30T01:50:48.885Z,12.47
2018-03-30T01:53:17.853Z,11.97
2018-03-30T01:55:46.026Z,13.23
2018-03-30T01:58:14.451Z,11.73
2018-03-30T02:00:42.759Z,13.20
2018-03-30T02:03:11.879Z,11.90
2018-03-30T02:05:39.986Z,11.33
2018-03-30T02:08:08.105Z,11.90
2018-03-30T02:10:36.249Z,13.07
2018-03-30T02:13:04.393Z,13.30
2018-03-30T02:15:33.352Z,11.70
2018-03-30T02:18:01.517Z,10.33
2018-03-30T02:20:29.619Z,11.00
2018-03-30T02:22:57.832Z,11.53
2018-03-30T02:25:25.972Z,13.73
2018-03-30T02:27:54.151Z,12.47
2018-03-30T02:30:22.279Z,12.00
2018-03-30T02:32:50.411Z,12.40
2018-03-30T02:35:19.529Z,11.53
2018-03-30T02:37:47.689Z,11.73
2018-03-30T02:40:16.832Z,11.87
2018-03-30T02:42:44.969Z,12.23
2018-03-30T02:45:13.092Z,15.60
2018-03-30T02:47:41.340Z,13.53
2018-03-30T02:50:09.475Z,16.80
2018-03-30T02:52:37.655Z,15.67
2018-03-30T02:55:06.546Z,14.43
2018-03-30T02:57:35.563Z,13.33
2018-03-30T03:00:04.451Z,14.93
2018-03-30T03:02:32.659Z,16.93
2018-03-30T03:05:00.834Z,15.23
2018-03-30T03:07:29.731Z,15.13
2018-03-30T03:09:58.625Z,14.50
2018-03-30T03:12:27.530Z,14.40
2018-03-30T03:14:56.559Z,11.13
2018-03-30T03:17:25.469Z,11.40
2018-03-30T03:19:53.576Z,12.43
2018-03-30T03:22:21.761Z,11.20
2018-03-30T03:24:49.897Z,11.80
2018-03-30T03:27:18.815Z,12.47
2018-03-30T03:29:47.766Z,13.00
2018-03-30T03:32:15.944Z,13.57
2018-03-30T03:34:44.082Z,12.77
2018-03-30T03:37:13.225Z,14.40
2018-03-30T03:39:41.336Z,16.67
2018-03-30T03:42:09.493Z,14.80
2018-03-30T03:44:37.629Z,14.13
2018-03-30T03:47:05.768Z,13.97
2018-03-30T03:49:34.000Z,13.40
2018-03-30T03:52:03.690Z,14.20
2018-03-30T03:54:31.815Z,15.67
2018-03-30T03:57:00.733Z,15.17
2018-03-30T03:59:29.681Z,13.43
2018-03-30T04:01:57.814Z,15.63
2018-03-30T04:04:26.732Z,18.60
2018-03-30T04:06:55.630Z,24.23
2018-03-30T04:09:24.590Z,21.83
2018-03-30T04:11:52.703Z,18.53
2018-03-30T04:14:20.879Z,16.97
2018-03-30T04:16:48.992Z,16.50
2018-03-30T04:19:17.896Z,14.93
2018-03-30T04:21:46.016Z,16.77
2018-03-30T04:24:14.162Z,15.97
2018-03-30T04:26:42.287Z,13.70
2018-03-30T04:29:10.443Z,15.03
2018-03-30T04:31:39.385Z,15.20
2018-03-30T04:34:07.536Z,14.50
2018-03-30T04:36:35.718Z,15.80
2018-03-30T04:39:05.536Z,17.50
2018-03-30T04:41:34.423Z,18.07
2018-03-30T04:44:02.571Z,19.97
2018-03-30T04:46:30.833Z,19.10
2018-03-30T04:48:59.656Z,20.83
2018-03-30T04:51:27.793Z,20.77
2018-03-30T04:53:55.957Z,22.07
2018-03-30T04:56:24.117Z,21.07
2018-03-30T04:58:52.270Z,21.40
2018-03-30T05:01:21.172Z,19.47
2018-03-30T05:03:50.126Z,21.30
2018-03-30T05:06:18.284Z,20.43
2018-03-30T05:08:46.466Z,18.90
2018-03-30T05:11:14.608Z,19.03
2018-03-30T05:13:42.721Z,18.60
2018-03-30T05:16:10.981Z,19.13
2018-03-30T05:18:39.157Z,20.80
2018-03-30T05:21:07.364Z,22.77
2018-03-30T05:23:35.479Z,25.53
2018-03-30T05:26:03.730Z,18.87
2018-03-30T05:28:31.904Z,17.97
2018-03-30T05:31:00.166Z,21.83
2018-03-30T05:33:28.349Z,19.33
2018-03-30T05:35:56.536Z,21.03
2018-03-30T05:38:24.774Z,19.70
2018-03-30T05:40:52.874Z,19.43
2018-03-30T05:43:21.780Z,18.10
2018-03-30T05:45:50.698Z,18.07
2018-03-30T05:48:18.838Z,18.57
2018-03-30T05:50:46.991Z,19.23
2018-03-30T05:53:15.194Z,19.07
2018-03-30T05:55:43.398Z,19.27
2018-03-30T05:58:11.506Z,19.60
2018-03-30T06:00:40.461Z,20.60
2018-03-30T06:03:08.605Z,22.23
2018-03-30T06:05:37.539Z,21.37
2018-03-30T06:08:05.728Z,23.73
2018-03-30T06:10:33.867Z,22.80
2018-03-30T06:13:02.898Z,22.43
2018-03-30T06:15:31.816Z,20.83
2018-03-30T06:17:59.922Z,22.37
2018-03-30T06:20:28.116Z,23.43
2018-03-30T06:22:56.179Z,22.50
2018-03-30T06:25:24.290Z,23.20
2018-03-30T06:27:52.432Z,22.60
2018-03-30T06:30:21.402Z,19.67
2018-03-30T06:32:49.625Z,25.03
2018-03-30T06:35:18.605Z,19.47
2018-03-30T06:37:46.733Z,16.90
2018-03-30T06:40:14.969Z,15.20
2018-03-30T06:42:43.122Z,13.67
2018-03-30T06:45:11.337Z,11.57
2018-03-30T06:47:39.482Z,11.27
2018-03-30T06:50:07.634Z,11.60
2018-03-30T06:52:36.601Z,11.63
2018-03-30T06:55:04.774Z,11.20
2018-03-30T06:57:32.920Z,12.17
2018-03-30T07:00:01.888Z,12.30
2018-03-30T07:02:30.093Z,12.23
2018-03-30T07:04:58.232Z,11.27
2018-03-30T07:07:26.393Z,11.73
2018-03-30T07:09:54.537Z,12.00
2018-03-30T07:12:22.689Z,9.77
2018-03-30T07:14:50.836Z,9.70
2018-03-30T07:17:19.699Z,10.10
2018-03-30T07:19:47.884Z,9.50
2018-03-30T07:22:15.984Z,9.07
2018-03-30T07:24:44.147Z,8.73
2018-03-30T07:27:12.266Z,9.60
2018-03-30T07:29:41.986Z,9.20
2018-03-30T07:32:10.095Z,9.20
2018-03-30T07:34:39.061Z,8.70
2018-03-30T07:37:07.152Z,8.47
2018-03-30T07:39:35.331Z,8.53
2018-03-30T07:42:03.464Z,8.23
2018-03-30T07:44:31.681Z,8.53
2018-03-30T07:46:59.861Z,8.00
2018-03-30T07:49:28.003Z,7.70
2018-03-30T07:51:56.919Z,8.17
2018-03-30T07:54:25.144Z,7.50
2018-03-30T07:56:53.249Z,8.13
2018-03-30T07:59:21.420Z,6.53
2018-03-30T08:01:49.597Z,6.43
2018-03-30T08:04:17.694Z,7.23
2018-03-30T08:06:47.188Z,6.20
2018-03-30T08:09:16.540Z,5.43
2018-03-30T08:11:45.903Z,4.97
2018-03-30T08:14:15.288Z,5.07
2018-03-30T08:16:44.682Z,4.50
2018-03-30T08:19:14.113Z,4.13
2018-03-30T08:21:43.523Z,3.90
2018-03-30T08:24:12.927Z,3.97
2018-03-30T08:26:42.324Z,3.67
2018-03-30T08:29:11.704Z,3.97
2018-03-30T08:31:41.161Z,3.67
2018-03-30T08:34:10.512Z,4.10
2018-03-30T08:36:39.907Z,3.80
2018-03-30T08:39:09.347Z,3.73
2018-03-30T08:41:38.763Z,3.93
2018-03-30T08:44:08.155Z,3.67
2018-03-30T08:46:37.607Z,4.20
2018-03-30T08:49:07.371Z,3.83
2018-03-30T08:51:36.860Z,3.77
2018-03-30T08:54:06.226Z,4.10
2018-03-30T08:56:35.664Z,3.63
2018-03-30T08:59:05.096Z,4.20
2018-03-30T09:01:34.520Z,5.40
2018-03-30T09:04:03.904Z,5.40
2018-03-30T09:06:33.303Z,5.10
2018-03-30T09:09:02.771Z,5.70
2018-03-30T09:11:32.176Z,5.17
2018-03-30T09:14:01.747Z,5.10
2018-03-30T09:16:31.247Z,4.80
2018-03-30T09:19:00.626Z,5.23
2018-03-30T09:21:30.106Z,5.43
2018-03-30T09:23:59.986Z,5.40
2018-03-30T09:26:29.979Z,5.17
2018-03-30T09:28:59.901Z,5.10
2018-03-30T09:31:29.597Z,4.67
2018-03-30T09:33:59.715Z,4.30
2018-03-30T09:36:29.153Z,5.07
2018-03-30T09:38:58.675Z,4.13
2018-03-30T09:41:28.147Z,3.60
2018-03-30T09:43:57.579Z,3.50
2018-03-30T09:46:27.036Z,4.27
2018-03-30T09:48:56.408Z,3.97
2018-03-30T09:51:25.821Z,4.03
2018-03-30T09:53:55.463Z,3.40
2018-03-30T09:56:23.621Z,3.30
2018-03-30T09:58:51.736Z,3.20
2018-03-30T10:01:19.963Z,3.47
2018-03-30T10:03:48.879Z,3.27
2018-03-30T10:06:17.023Z,3.50
2018-03-30T10:08:45.252Z,3.50
2018-03-30T10:11:13.478Z,3.27
2018-03-30T10:13:41.625Z,3.50
2018-03-30T10:16:10.564Z,3.50
2018-03-30T10:18:38.684Z,3.67
2018-03-30T10:21:06.832Z,3.63
2018-03-30T10:23:35.382Z,3.73
2018-03-30T10:26:04.340Z,3.60
2018-03-30T10:28:32.542Z,3.33
2018-03-30T10:31:00.750Z,3.53
2018-03-30T10:33:28.895Z,4.20
2018-03-30T10:35:57.251Z,3.83
2018-03-30T10:38:26.156Z,3.40
2018-03-30T10:40:55.118Z,3.53
2018-03-30T10:43:23.176Z,2.80
2018-03-30T10:45:51.694Z,3.00
2018-03-30T10:48:19.845Z,3.30
2018-03-30T10:50:47.980Z,3.10
2018-03-30T10:53:16.205Z,3.03
2018-03-30T10:55:45.114Z,2.87
2018-03-30T10:58:13.205Z,2.43
2018-03-30T11:00:41.341Z,2.70
2018-03-30T11:03:09.442Z,2.60
2018-03-30T11:05:38.404Z,2.40
2018-03-30T11:08:06.544Z,2.57
2018-03-30T11:10:35.452Z,2.50
2018-03-30T11:13:03.560Z,2.67
2018-03-30T11:15:31.776Z,1.83
2018-03-30T11:17:59.891Z,1.70
2018-03-30T11:20:28.046Z,1.80
2018-03-30T11:22:56.171Z,2.10
2018-03-30T11:25:25.104Z,1.70
2018-03-30T11:27:53.230Z,1.50
2018-03-30T11:30:21.383Z,5.43
2018-03-30T11:32:49.609Z,1.83
2018-03-30T11:35:17.820Z,1.70
2018-03-30T11:37:46.706Z,1.97
2018-03-30T11:40:14.837Z,1.60
2018-03-30T11:42:42.933Z,1.20
2018-03-30T11:45:11.113Z,1.77
2018-03-30T11:47:39.210Z,1.43
2018-03-30T11:50:07.362Z,1.73
2018-03-30T11:52:36.267Z,9.03
2018-03-30T11:55:04.356Z,1.60
2018-03-30T11:57:32.485Z,1.30
2018-03-30T12:00:00.644Z,1.10
2018-03-30T12:02:28.777Z,1.37
2018-03-30T12:04:56.899Z,1.27
2018-03-30T12:07:25.045Z,1.33
2018-03-30T12:09:53.169Z,1.10
2018-03-30T12:12:21.405Z,1.30
2018-03-30T12:14:49.513Z,1.30
2018-03-30T12:17:17.657Z,1.10
2018-03-30T12:19:45.828Z,1.10
2018-03-30T12:22:14.038Z,2.07
2018-03-30T12:24:42.175Z,2.93
2018-03-30T12:27:11.041Z,1.43
2018-03-30T12:29:39.214Z,1.10
2018-03-30T12:32:07.396Z,1.57
2018-03-30T12:34:35.511Z,1.57
2018-03-30T12:37:03.663Z,1.40
2018-03-30T12:39:31.792Z,1.63
2018-03-30T12:41:59.947Z,1.20
2018-03-30T12:44:28.087Z,1.10
2018-03-30T12:46:56.991Z,1.10
2018-03-30T12:49:25.145Z,1.30
2018-03-30T12:51:53.269Z,1.30
2018-03-30T12:54:21.388Z,1.30
2018-03-30T12:56:49.520Z,1.20
2018-03-30T12:59:18.505Z,2.40
2018-03-30T13:01:46.639Z,1.40
2018-03-30T13:04:14.790Z,1.30
2018-03-30T13:06:43.778Z,1.30
2018-03-30T13:09:11.945Z,1.37
2018-03-30T13:11:40.059Z,1.73
2018-03-30T13:14:08.255Z,1.30
2018-03-30T13:16:36.458Z,1.60
2018-03-30T13:19:05.764Z,1.30
2018-03-30T13:21:34.690Z,1.37
2018-03-30T13:24:02.832Z,1.30
2018-03-30T13:26:31.052Z,1.33
2018-03-30T13:28:59.176Z,1.50
2018-03-30T13:31:27.449Z,4.00
2018-03-30T13:33:55.629Z,1.30
2018-03-30T13:36:23.809Z,1.50
2018-03-30T13:38:51.946Z,1.10
2018-03-30T13:41:20.087Z,1.47
2018-03-30T13:43:48.195Z,1.50
2018-03-30T13:46:16.316Z,1.60
2018-03-30T13:48:45.226Z,1.80
2018-03-30T13:51:20.599Z,1.80
2018-03-30T13:53:56.283Z,2.10
2018-03-30T13:56:36.636Z,1.80
2018-03-30T13:59:10.294Z,2.10
2018-03-30T14:04:51.671Z,2.10
2018-03-30T14:07:23.954Z,1.90
2018-03-30T14:10:09.215Z,2.10
2018-03-30T14:12:37.279Z,2.50
2018-03-30T14:15:08.873Z,2.50
2018-03-30T14:17:41.199Z,2.50
2018-03-30T14:20:23.729Z,2.80
2018-03-30T14:22:52.704Z,2.53
2018-03-30T14:25:24.296Z,2.70
2018-03-30T14:28:02.473Z,2.60
2018-03-30T14:30:31.451Z,2.70
2018-03-30T14:33:05.322Z,2.70
2018-03-30T14:35:39.904Z,2.23
2018-03-30T14:38:10.348Z,2.57
2018-03-30T14:40:41.964Z,2.60
2018-03-30T14:43:16.625Z,2.37
2018-03-30T14:45:46.136Z,1.93
2018-03-30T14:48:18.021Z,2.47
2018-03-30T14:50:57.860Z,2.33
2018-03-30T14:53:30.378Z,2.30
2018-03-30T14:59:08.123Z,2.20
2018-03-30T15:01:39.673Z,2.03
2018-03-30T15:07:08.724Z,1.73
2018-03-30T15:09:53.387Z,1.90
2018-03-30T15:12:23.268Z,1.70
2018-03-30T15:14:55.122Z,1.60
2018-03-30T15:17:31.833Z,1.70
2018-03-30T15:20:08.355Z,1.57
2018-03-30T15:22:36.549Z,1.73
2018-03-30T15:25:21.159Z,1.77
2018-03-30T15:27:50.883Z,1.63
2018-03-30T15:30:25.410Z,1.53
2018-03-30T15:35:52.994Z,1.57
2018-03-30T15:38:21.060Z,1.87
2018-03-30T15:40:49.179Z,1.73
2018-03-30T15:43:17.951Z,1.50
2018-03-30T15:45:57.982Z,1.60
2018-03-30T15:48:26.051Z,1.87
2018-03-30T15:51:03.672Z,1.80
2018-03-30T15:53:31.259Z,1.70
2018-03-30T15:56:00.080Z,2.07
2018-03-30T15:58:28.148Z,1.90
2018-03-30T16:00:56.969Z,2.00
2018-03-30T16:03:25.055Z,1.80
2018-03-30T16:05:53.133Z,2.00
2018-03-30T16:08:22.014Z,2.27
2018-03-30T16:10:52.601Z,2.10
2018-03-30T16:13:20.819Z,1.80
2018-03-30T16:15:49.697Z,1.90
2018-03-30T16:18:17.844Z,2.37
2018-03-30T16:20:46.245Z,1.80
2018-03-30T16:23:14.628Z,1.83
2018-03-30T16:25:42.992Z,2.03
2018-03-30T16:28:10.664Z,1.90
2018-03-30T16:30:38.333Z,1.87
2018-03-30T16:33:06.036Z,2.20
2018-03-30T16:35:33.681Z,2.33
2018-03-30T16:38:01.390Z,2.30
2018-03-30T16:40:29.795Z,2.27
2018-03-30T16:42:58.188Z,2.30
2018-03-30T16:45:26.141Z,2.10
2018-03-30T16:47:55.310Z,2.20
2018-03-30T16:50:22.957Z,2.47
2018-03-30T16:52:50.607Z,2.50
2018-03-30T16:55:19.032Z,2.40
2018-03-30T16:57:46.663Z,2.23
2018-03-30T17:00:14.358Z,2.80
2018-03-30T17:02:42.777Z,2.80
2018-03-30T17:05:10.430Z,2.80
2018-03-30T17:07:38.812Z,2.50
2018-03-30T17:10:07.274Z,3.20
2018-03-30T17:12:34.889Z,2.53
2018-03-30T17:15:03.345Z,3.53
2018-03-30T17:17:30.958Z,3.17
2018-03-30T17:19:59.320Z,3.40
2018-03-30T17:22:26.980Z,3.57
2018-03-30T17:24:54.675Z,4.20
2018-03-30T17:27:22.299Z,4.80
2018-03-30T17:29:49.945Z,4.60
2018-03-30T17:32:18.338Z,4.67
2018-03-30T17:34:45.960Z,4.40
2018-03-30T17:37:13.674Z,4.67
2018-03-30T17:39:41.308Z,5.00
2018-03-30T17:42:08.997Z,5.20
2018-03-30T17:44:36.699Z,5.40
2018-03-30T17:47:05.074Z,5.27
2018-03-30T17:49:32.707Z,5.50
2018-03-30T17:52:00.317Z,5.43
2018-03-30T17:54:27.983Z,5.20
2018-03-30T17:56:55.683Z,5.27
2018-03-30T17:59:23.284Z,5.83
2018-03-30T18:01:50.915Z,6.33
2018-03-30T18:04:18.551Z,6.70
2018-03-30T18:06:46.228Z,5.30
2018-03-30T18:09:13.889Z,6.37
2018-03-30T18:11:41.593Z,5.60
2018-03-30T18:14:09.192Z,5.93
2018-03-30T18:16:36.852Z,6.13
2018-03-30T18:19:04.501Z,5.93
2018-03-30T18:21:32.167Z,6.23
2018-03-30T18:23:59.796Z,6.03
2018-03-30T18:26:27.492Z,6.83
2018-03-30T18:28:55.884Z,7.03
2018-03-30T18:31:23.523Z,7.60
2018-03-30T18:33:51.135Z,6.20
2018-03-30T18:36:18.743Z,7.90
2018-03-30T18:38:46.434Z,7.73
2018-03-30T18:41:14.041Z,6.70
2018-03-30T18:43:42.471Z,6.80
2018-03-30T18:46:10.087Z,6.10
2018-03-30T18:48:37.767Z,5.87
2018-03-30T18:51:05.430Z,5.27
2018-03-30T18:53:33.108Z,5.97
2018-03-30T18:56:00.720Z,5.23
2018-03-30T18:58:28.331Z,5.17
2018-03-30T19:00:56.014Z,4.50
2018-03-30T19:03:23.624Z,5.00
2018-03-30T19:05:52.021Z,4.97
2018-03-30T19:08:20.413Z,5.23
2018-03-30T19:10:48.938Z,5.00
2018-03-30T19:13:16.646Z,5.43
2018-03-30T19:15:44.304Z,5.47
2018-03-30T19:18:12.027Z,4.97
2018-03-30T19:20:40.421Z,5.00
2018-03-30T19:23:08.804Z,5.03
2018-03-30T19:25:37.227Z,4.97
2018-03-30T19:28:04.872Z,6.07
2018-03-30T19:30:32.515Z,7.00
2018-03-30T19:33:00.125Z,7.73
2018-03-30T19:35:28.488Z,9.07
2018-03-30T19:37:56.140Z,8.87
2018-03-30T19:40:23.785Z,9.73
2018-03-30T19:42:51.418Z,9.03
2018-03-30T19:45:19.032Z,9.80
2018-03-30T19:47:46.698Z,9.20
2018-03-30T19:50:14.471Z,8.53
2018-03-30T19:52:42.887Z,8.13
2018-03-30T19:55:10.519Z,7.10
2018-03-30T19:57:39.005Z,8.60
2018-03-30T20:00:06.690Z,8.83
2018-03-30T20:02:35.101Z,7.83
2018-03-30T20:05:02.718Z,8.40
2018-03-30T20:07:30.349Z,8.17
2018-03-30T20:09:58.045Z,8.33
2018-03-30T20:12:25.694Z,8.37
2018-03-30T20:14:53.317Z,9.60
2018-03-30T20:17:21.019Z,9.33
2018-03-30T20:19:48.640Z,7.90
2018-03-30T20:22:16.415Z,7.00
2018-03-30T20:24:43.967Z,6.97
2018-03-30T20:27:12.400Z,6.80
2018-03-30T20:29:40.020Z,9.60
2018-03-30T20:32:07.660Z,9.63
2018-03-30T20:34:35.376Z,9.60
2018-03-30T20:37:03.818Z,9.50
2018-03-30T20:39:32.153Z,9.33
2018-03-30T20:42:00.569Z,5.97
2018-03-30T20:44:28.198Z,5.80
2018-03-30T20:46:55.844Z,4.50
2018-03-30T20:49:23.486Z,4.47
2018-03-30T20:51:51.133Z,4.60
2018-03-30T20:54:19.549Z,4.30
2018-03-30T20:56:47.149Z,5.00
2018-03-30T20:59:14.790Z,5.10
2018-03-30T21:01:43.194Z,5.50
2018-03-30T21:04:10.846Z,6.30
2018-03-30T21:06:39.262Z,4.63
2018-03-30T21:09:06.886Z,5.17
2018-03-30T21:11:34.525Z,5.27
2018-03-30T21:14:02.195Z,4.87
2018-03-30T21:16:29.881Z,4.23
2018-03-30T21:18:57.537Z,4.50
2018-03-30T21:21:25.950Z,5.23
2018-03-30T21:23:53.597Z,4.70
2018-03-30T21:26:21.214Z,5.87
2018-03-30T21:28:48.959Z,4.90
2018-03-30T21:31:16.631Z,5.50
2018-03-30T21:33:44.273Z,6.37
2018-03-30T21:36:12.655Z,6.67
2018-03-30T21:38:41.052Z,7.33
2018-03-30T21:41:09.439Z,6.90
2018-03-30T21:43:37.843Z,7.93
2018-03-30T21:46:06.204Z,8.00
2018-03-30T21:48:33.874Z,8.20
2018-03-30T21:51:01.481Z,9.47
2018-03-30T21:53:29.883Z,7.00
2018-03-30T21:55:57.506Z,7.63
2018-03-30T21:58:25.120Z,6.60
2018-03-30T22:00:53.574Z,6.13
2018-03-30T22:03:21.212Z,8.40
2018-03-30T22:05:48.862Z,7.90
2018-03-30T22:08:16.485Z,8.53
2018-03-30T22:10:44.096Z,9.90
2018-03-30T22:13:12.508Z,8.77
2018-03-30T22:15:40.114Z,10.83
2018-03-30T22:18:07.746Z,10.60
2018-03-30T22:20:36.150Z,10.53
2018-03-30T22:23:04.539Z,10.27
2018-03-30T22:25:32.156Z,11.37
2018-03-30T22:27:59.795Z,8.27
2018-03-30T22:30:27.430Z,8.43
2018-03-30T22:32:55.079Z,8.83
2018-03-30T22:35:22.767Z,8.73
2018-03-30T22:37:50.379Z,10.63
2018-03-30T22:40:17.987Z,9.13
2018-03-30T22:42:45.641Z,9.20
2018-03-30T22:45:13.274Z,11.87
2018-03-30T22:47:40.867Z,9.13
2018-03-30T22:50:09.313Z,9.90
2018-03-30T22:52:36.994Z,9.97
2018-03-30T22:55:04.625Z,9.23
2018-03-30T22:57:32.265Z,9.90
2018-03-30T23:00:00.645Z,8.97
2018-03-30T23:02:28.314Z,9.57
2018-03-30T23:04:56.080Z,9.77
2018-03-30T23:07:23.818Z,13.83
2018-03-30T23:09:51.455Z,9.53
2018-03-30T23:12:19.110Z,9.60
2018-03-30T23:14:46.926Z,9.53
2018-03-30T23:17:15.299Z,10.43
2018-03-30T23:19:42.961Z,8.17
2018-03-30T23:22:10.551Z,8.03
2018-03-30T23:24:38.156Z,8.80
2018-03-30T23:27:05.860Z,7.93
2018-03-30T23:29:33.496Z,7.33
2018-03-30T23:32:01.175Z,5.83
2018-03-30T23:34:29.605Z,6.03
2018-03-30T23:36:57.317Z,7.50
2018-03-30T23:39:25.007Z,6.97
2018-03-30T23:41:52.656Z,6.00
2018-03-30T23:44:20.277Z,6.27
2018-03-30T23:46:47.949Z,5.20
2018-03-30T23:49:15.616Z,4.67
2018-03-30T23:51:43.279Z,4.83
2018-03-30T23:54:11.679Z,4.70
2018-03-30T23:56:39.296Z,4.93
2018-03-30T23:59:06.990Z,5.17
